Time;durP1;ratioP1;P1;durP2;ratioP2;P2;SDS_P1;SDS_P2;PMS_P1;PMS_P2;Temp;Humidity;BMP_temperature;BMP_pressure;BME280_temperature;BME280_humidity;BME280_pressure;Samples;Min_cycle;Max_cycle;Signal;HPM_P1;HPM_P2
2022/01/19 00:00:13;;;;;;;2.35;2.13;;;;;;;1.45;84.66;100368.44;4895790;29;20036;-68
2022/01/19 00:02:39;;;;;;;3.05;1.65;;;;;;;1.27;85.35;100377.03;4889223;29;20037;-68
2022/01/19 00:05:07;;;;;;;1.20;1.20;;;;;;;1.20;86.04;100372.44;4888828;29;20138;-68
2022/01/19 00:07:32;;;;;;;1.77;1.67;;;;;;;1.07;86.51;100365.06;4881546;29;20511;-68
2022/01/19 00:10:03;;;;;;;0.82;0.82;;;;;;;0.96;87.03;100358.56;4891149;29;20029;-68
2022/01/19 00:12:29;;;;;;;1.33;1.23;;;;;;;1.05;87.09;100341.13;4879922;29;20037;-68
2022/01/19 00:14:54;;;;;;;2.35;2.15;;;;;;;1.00;87.27;100334.94;4881210;29;20108;-68
2022/01/19 00:17:19;;;;;;;1.65;0.90;;;;;;;0.92;87.08;100320.97;4880873;29;20768;-68
2022/01/19 00:19:45;;;;;;;1.17;1.17;;;;;;;0.77;87.80;100327.16;4881104;29;20041;-68
2022/01/19 00:22:10;;;;;;;1.63;1.55;;;;;;;0.76;87.91;100335.56;4881265;29;20104;-68
2022/01/19 00:24:35;;;;;;;1.42;1.33;;;;;;;0.73;88.25;100335.44;4881230;29;20116;-68
2022/01/19 00:27:01;;;;;;;1.52;1.45;;;;;;;0.80;89.53;100346.81;4881056;29;20117;-67
2022/01/19 00:29:26;;;;;;;1.10;1.10;;;;;;;0.77;88.90;100346.66;4881273;29;20041;-67
2022/01/19 00:31:51;;;;;;;0.98;0.98;;;;;;;0.69;88.93;100343.75;4882658;29;20036;-68
2022/01/19 00:34:16;;;;;;;2.63;1.92;;;;;;;0.59;88.43;100351.78;4894783;29;20093;-68
2022/01/19 00:36:42;;;;;;;4.97;1.95;;;;;;;0.51;88.95;100368.38;4880877;29;20036;-68
2022/01/19 00:39:07;;;;;;;2.15;2.05;;;;;;;0.45;89.04;100368.09;4880948;29;20491;-68
2022/01/19 00:41:32;;;;;;;1.70;1.60;;;;;;;0.41;88.84;100366.19;4880880;29;20112;-68
2022/01/19 00:43:58;;;;;;;1.10;1.10;;;;;;;0.32;89.66;100360.66;4880912;29;20502;-67
2022/01/19 00:46:23;;;;;;;1.58;1.48;;;;;;;0.26;89.79;100373.97;4879593;29;20071;-66
2022/01/19 00:48:48;;;;;;;1.25;1.25;;;;;;;0.05;90.61;100371.28;4879543;29;20133;-67
2022/01/19 00:51:14;;;;;;;0.90;0.90;;;;;;;0.01;90.83;100363.41;4880584;29;20033;-66
2022/01/19 00:53:39;;;;;;;1.20;1.20;;;;;;;0.03;90.98;100367.75;4880828;29;20040;-66
2022/01/19 00:56:04;;;;;;;5.10;2.53;;;;;;;0.05;90.98;100360.16;4880473;29;20025;-66
2022/01/19 00:58:30;;;;;;;2.20;2.10;;;;;;;-0.02;91.32;100364.09;4880699;29;20032;-66
2022/01/19 05:16:56;;;;;;;0.90;0.90;;;;;;;-1.99;100.00;100057.28;5181910;23;20391;-67
2022/01/19 05:19:21;;;;;;;2.08;1.98;;;;;;;-2.00;100.00;100047.94;4917952;29;20048;-67
2022/01/19 05:21:47;;;;;;;2.92;2.00;;;;;;;-1.97;100.00;100044.69;4918033;29;20529;-68
2022/01/19 05:24:12;;;;;;;5.78;1.90;;;;;;;-1.94;100.00;100048.25;4917967;29;20103;-66
2022/01/19 05:26:38;;;;;;;1.30;0.82;;;;;;;-1.93;100.00;100039.84;4917549;29;20091;-66
2022/01/19 05:29:04;;;;;;;2.47;1.95;;;;;;;-1.96;100.00;100044.75;4918792;29;20028;-66
2022/01/19 05:31:29;;;;;;;3.42;2.40;;;;;;;-1.97;100.00;100045.56;4917721;29;20500;-66
2022/01/19 05:33:55;;;;;;;1.75;1.65;;;;;;;-1.95;100.00;100041.44;4896103;29;20140;-67
2022/01/19 05:36:20;;;;;;;1.40;1.30;;;;;;;-1.94;100.00;100030.47;4917696;29;20392;-68
2022/01/19 05:38:46;;;;;;;1.70;1.60;;;;;;;-1.93;100.00;100032.25;4917684;29;20020;-66
2022/01/19 05:41:11;;;;;;;1.98;1.90;;;;;;;-1.85;100.00;100036.03;4917578;29;20020;-66
2022/01/19 05:43:36;;;;;;;2.65;1.73;;;;;;;-1.74;100.00;100028.06;4917491;29;20119;-66
2022/01/19 05:46:02;;;;;;;10.15;2.13;;;;;;;-1.66;100.00;100017.50;4917333;29;20024;-67
2022/01/19 05:48:27;;;;;;;3.08;1.92;;;;;;;-1.73;100.00;100014.59;4917662;29;20481;-67
2022/01/19 05:50:53;;;;;;;1.70;1.60;;;;;;;-1.75;100.00;100011.09;4917552;29;20430;-68
2022/01/19 05:53:18;;;;;;;2.42;2.22;;;;;;;-1.75;100.00;100008.56;4917377;29;20067;-67
2022/01/19 05:55:44;;;;;;;2.45;1.40;;;;;;;-1.78;100.00;100005.88;4917085;29;20059;-67
2022/01/19 05:58:10;;;;;;;1.27;1.27;;;;;;;-1.78;100.00;100005.88;4917185;29;20088;-66
2022/01/19 06:00:35;;;;;;;1.50;1.40;;;;;;;-1.74;100.00;100000.13;4917284;29;20438;-67
2022/01/19 06:03:01;;;;;;;1.10;1.10;;;;;;;-1.57;100.00;100000.19;4916920;29;20036;-67
2022/01/19 06:05:26;;;;;;;1.67;1.45;;;;;;;-1.58;100.00;100001.00;4912695;29;20021;-67
2022/01/19 06:08:08;;;;;;;2.13;1.98;;;;;;;-1.72;100.00;99990.94;4898090;29;20025;-68
2022/01/19 06:10:43;;;;;;;1.67;1.63;;;;;;;-1.72;100.00;99986.72;4898089;29;20410;-68
2022/01/19 06:13:09;;;;;;;1.17;1.17;;;;;;;-1.69;100.00;99991.97;4898242;29;20024;-67
2022/01/19 06:15:34;;;;;;;1.08;1.05;;;;;;;-1.55;100.00;99990.09;4897881;29;20032;-68
2022/01/19 06:17:59;;;;;;;1.40;1.30;;;;;;;-1.66;99.63;99988.69;4912452;29;20032;-67
2022/01/19 06:20:25;;;;;;;1.88;1.77;;;;;;;-1.66;100.00;99993.78;4898015;29;20499;-67
2022/01/19 06:22:50;;;;;;;2.08;1.98;;;;;;;-1.64;99.92;99994.75;4898032;29;20044;-68
2022/01/19 06:25:16;;;;;;;1.63;1.55;;;;;;;-1.82;100.00;99995.56;4897724;29;20040;-66
2022/01/19 06:27:41;;;;;;;2.05;1.95;;;;;;;-1.69;100.00;100001.25;4898019;29;20383;-67
2022/01/19 06:30:07;;;;;;;1.38;1.35;;;;;;;-1.69;100.00;99998.69;4902205;29;20474;-67
2022/01/19 06:32:32;;;;;;;1.55;1.52;;;;;;;-1.73;100.00;99996.81;4916652;29;20417;-68
2022/01/19 06:34:58;;;;;;;0.90;0.90;;;;;;;-1.74;100.00;99995.06;4916653;29;20079;-66
2022/01/19 06:37:23;;;;;;;2.78;2.63;;;;;;;-1.74;100.00;99997.59;4916486;29;20031;-67
2022/01/19 06:39:49;;;;;;;1.08;1.08;;;;;;;-1.53;100.00;100003.78;4916457;29;20032;-68
2022/01/19 06:42:14;;;;;;;1.08;1.08;;;;;;;-1.58;99.93;99989.97;4916786;29;20059;-67
2022/01/19 06:44:39;;;;;;;1.00;1.00;;;;;;;-1.58;99.50;99995.03;4915633;29;20115;-67
2022/01/19 06:47:05;;;;;;;1.13;1.13;;;;;;;-1.54;99.28;99996.94;4916238;29;20031;-68
2022/01/19 06:49:30;;;;;;;3.10;2.67;;;;;;;-1.48;99.18;99999.78;4916428;29;20063;-67
2022/01/19 06:51:56;;;;;;;1.50;1.50;;;;;;;-1.43;98.45;100000.88;4915613;29;20440;-68
2022/01/19 06:54:21;;;;;;;0.77;0.77;;;;;;;-1.40;98.63;99990.88;4916051;29;20438;-66
2022/01/19 06:56:47;;;;;;;1.23;1.23;;;;;;;-1.36;98.46;99992.75;4916064;29;20028;-67
2022/01/19 06:59:12;;;;;;;2.17;1.77;;;;;;;-1.29;98.76;99986.31;4916232;29;20040;-68
2022/01/19 07:01:37;;;;;;;1.27;1.27;;;;;;;-1.35;98.67;99991.97;4916053;29;20024;-68
2022/01/19 07:04:04;;;;;;;2.92;2.47;;;;;;;-1.17;98.88;99989.44;4916065;29;20032;-68
2022/01/19 07:06:29;;;;;;;2.20;2.00;;;;;;;-1.12;98.02;99987.09;4915879;29;20072;-67
2022/01/19 07:08:55;;;;;;;1.85;1.75;;;;;;;-1.17;97.43;99980.94;4916083;29;20035;-67
2022/01/19 07:11:20;;;;;;;0.98;0.98;;;;;;;-0.98;97.31;99986.09;4916002;29;20028;-67
2022/01/19 07:13:45;;;;;;;2.13;2.00;;;;;;;-1.06;96.80;99983.19;4916232;29;20028;-67
2022/01/19 07:16:11;;;;;;;0.95;0.95;;;;;;;-0.87;96.56;99978.97;4915570;29;20063;-67
2022/01/19 07:18:36;;;;;;;2.00;1.75;;;;;;;-1.10;96.10;99967.72;4916017;29;20032;-68
2022/01/19 07:21:01;;;;;;;2.17;2.08;;;;;;;-0.87;96.53;99967.13;4915829;29;20024;-68
2022/01/19 07:23:27;;;;;;;1.10;1.08;;;;;;;-0.98;96.36;99978.47;4915703;29;20469;-68
2022/01/19 07:25:53;;;;;;;2.08;1.98;;;;;;;-0.93;96.65;99974.47;4915638;29;20028;-68
2022/01/19 07:28:18;;;;;;;2.47;2.30;;;;;;;-1.07;96.68;99978.03;4915827;29;20036;-68
2022/01/19 07:30:44;;;;;;;2.15;1.50;;;;;;;-1.00;96.38;99972.44;4915850;29;20016;-68
2022/01/19 07:33:09;;;;;;;1.92;1.88;;;;;;;-0.91;96.23;99972.88;4915551;29;20024;-68
2022/01/19 07:35:34;;;;;;;3.60;3.38;;;;;;;-0.86;96.32;99966.34;4915661;29;20036;-68
2022/01/19 07:38:00;;;;;;;1.90;1.80;;;;;;;-0.89;95.89;99966.19;4915448;29;20028;-68
2022/01/19 07:40:25;;;;;;;3.10;2.92;;;;;;;-0.68;95.61;99967.97;4915781;29;20028;-68
2022/01/19 07:42:51;;;;;;;2.13;2.03;;;;;;;-0.61;95.94;99962.38;4915685;29;20397;-68
2022/01/19 07:45:17;;;;;;;1.90;1.80;;;;;;;-0.62;95.63;99968.25;4915784;29;20028;-68
2022/01/19 07:47:43;;;;;;;1.83;1.75;;;;;;;-0.67;95.30;99959.56;4915462;29;20473;-68
2022/01/19 07:50:09;;;;;;;2.35;2.25;;;;;;;-0.75;95.08;99956.66;4915716;29;20571;-68
2022/01/19 07:52:35;;;;;;;1.60;1.55;;;;;;;-0.85;95.66;99957.03;4915396;29;20059;-68
2022/01/19 07:55:00;;;;;;;2.92;2.55;;;;;;;-0.85;95.88;99952.81;4915457;29;20100;-68
2022/01/19 07:57:27;;;;;;;1.70;1.38;;;;;;;-0.88;95.98;99937.38;4919041;29;20109;-68
2022/01/19 07:59:53;;;;;;;1.10;1.08;;;;;;;-0.78;95.97;99944.63;4919359;29;20028;-68
2022/01/19 08:02:18;;;;;;;3.03;1.88;;;;;;;-0.67;95.62;99932.44;4919259;29;20375;-68
2022/01/19 08:04:44;;;;;;;2.53;2.35;;;;;;;-0.50;95.03;99934.84;4919196;29;20040;-68
2022/01/19 08:07:09;;;;;;;3.20;2.22;;;;;;;-0.32;94.24;99936.53;4919043;29;20088;-68
2022/01/19 08:09:35;;;;;;;3.33;2.65;;;;;;;-0.29;93.23;99939.22;4919406;29;20083;-68
2022/01/19 08:12:01;;;;;;;3.05;2.55;;;;;;;-0.37;93.13;99940.56;4919346;29;20123;-68
2022/01/19 08:14:27;;;;;;;1.45;1.40;;;;;;;-0.27;93.06;99932.50;4919069;29;20028;-68
2022/01/19 08:16:57;;;;;;;3.15;2.67;;;;;;;0.49;91.23;99936.56;4918776;29;20036;-68
2022/01/19 08:19:23;;;;;;;2.75;2.55;;;;;;;2.08;84.23;99921.22;4918922;29;20028;-68
2022/01/19 08:21:48;;;;;;;5.03;3.25;;;;;;;4.11;73.07;99909.47;4918835;29;20367;-68
2022/01/19 08:24:14;;;;;;;3.03;2.72;;;;;;;5.14;68.92;99900.84;4918783;29;20028;-69
2022/01/19 08:26:40;;;;;;;19.17;3.35;;;;;;;7.59;59.94;99904.16;4918821;29;20115;-69
2022/01/19 08:29:06;;;;;;;11.50;4.05;;;;;;;10.11;53.24;99892.19;4918731;29;20083;-69
2022/01/19 08:31:32;;;;;;;3.80;3.22;;;;;;;11.02;48.00;99876.66;4933508;29;20107;-69
2022/01/19 08:33:58;;;;;;;4.38;3.17;;;;;;;10.26;48.76;99877.56;4918677;29;20086;-69
2022/01/19 08:36:24;;;;;;;7.15;2.63;;;;;;;10.47;48.34;99876.72;4918269;29;20025;-69
2022/01/19 08:38:49;;;;;;;5.57;2.30;;;;;;;11.94;44.70;99871.16;4918715;29;20059;-67
2022/01/19 08:41:14;;;;;;;10.43;2.33;;;;;;;12.61;43.04;99870.63;4918689;29;20120;-67
2022/01/19 08:43:40;;;;;;;3.58;2.47;;;;;;;10.92;45.41;99885.31;4918631;29;20032;-67
2022/01/19 08:46:05;;;;;;;2.72;2.53;;;;;;;13.83;40.44;99881.47;4918210;29;20079;-68
2022/01/19 08:48:31;;;;;;;5.07;3.17;;;;;;;13.95;39.93;99884.78;4918615;29;20051;-69
2022/01/19 08:50:56;;;;;;;3.45;2.45;;;;;;;13.90;39.34;99884.84;4918365;29;20438;-67
2022/01/19 08:53:22;;;;;;;3.25;2.58;;;;;;;14.69;37.51;99879.31;4918357;29;20473;-68
2022/01/19 08:55:48;;;;;;;7.88;3.13;;;;;;;14.50;37.38;99881.38;4918022;29;20028;-68
2022/01/19 08:58:14;;;;;;;2.47;2.15;;;;;;;15.17;36.03;99886.28;4918353;29;20032;-68
2022/01/19 09:00:41;;;;;;;5.57;3.20;;;;;;;16.37;34.35;99886.38;4918616;29;20052;-68
2022/01/19 09:03:07;;;;;;;4.50;2.50;;;;;;;15.43;35.09;99882.31;4918214;29;20040;-68
2022/01/19 09:05:33;;;;;;;3.60;2.45;;;;;;;17.33;33.08;99883.06;4917961;29;20035;-68
2022/01/19 09:07:58;;;;;;;2.92;1.88;;;;;;;16.22;32.61;99891.97;4917291;29;20055;-68
2022/01/19 09:10:25;;;;;;;1.88;1.77;;;;;;;16.00;33.71;99892.44;4918385;29;20104;-69
2022/01/19 09:12:50;;;;;;;2.75;1.50;;;;;;;16.88;32.44;99891.28;4918065;29;20028;-69
2022/01/19 09:15:18;;;;;;;4.25;2.97;;;;;;;16.01;32.26;99898.56;4917933;29;20028;-68
2022/01/19 09:17:43;;;;;;;3.90;1.98;;;;;;;16.54;33.36;99886.84;4917825;29;20039;-68
2022/01/19 09:20:10;;;;;;;3.03;2.17;;;;;;;16.99;31.49;99888.38;4917910;29;20028;-68
2022/01/19 09:22:35;;;;;;;5.18;2.10;;;;;;;17.44;31.14;99891.47;4917948;29;20043;-68
2022/01/19 09:25:03;;;;;;;3.30;2.20;;;;;;;16.23;32.95;99896.31;4917845;29;20382;-68
2022/01/19 09:27:29;;;;;;;4.13;1.67;;;;;;;18.48;31.02;99888.38;4916222;29;20055;-68
2022/01/19 09:29:54;;;;;;;2.90;1.70;;;;;;;17.55;30.47;99894.69;4917853;29;20024;-68
2022/01/19 09:32:20;;;;;;;2.55;2.22;;;;;;;16.45;31.95;99893.16;4916408;29;20052;-68
2022/01/19 09:34:49;;;;;;;4.22;2.40;;;;;;;15.40;32.80;99887.59;4917535;29;20068;-68
2022/01/19 09:37:17;;;;;;;4.38;2.38;;;;;;;13.14;35.87;99881.38;4917416;29;20565;-68
2022/01/19 09:39:43;;;;;;;1.73;1.60;;;;;;;15.64;34.11;99876.69;4917651;29;20035;-68
2022/01/19 09:42:08;;;;;;;2.60;2.10;;;;;;;14.76;35.69;99870.53;4917631;29;20024;-68
2022/01/19 09:44:34;;;;;;;10.57;3.53;;;;;;;15.04;35.04;99871.75;4916842;29;20135;-68
2022/01/19 09:46:59;;;;;;;2.92;2.63;;;;;;;16.48;32.49;99871.28;4917124;29;20024;-69
2022/01/19 09:49:25;;;;;;;7.13;3.60;;;;;;;16.10;32.59;99869.56;4917327;29;20374;-68
2022/01/19 09:51:52;;;;;;;2.55;2.28;;;;;;;15.17;34.70;99870.59;4917705;29;20036;-68
2022/01/19 09:54:24;;;;;;;4.72;2.10;;;;;;;16.07;33.19;99862.66;4916514;29;20024;-68
2022/01/19 09:56:50;;;;;;;5.50;2.60;;;;;;;18.02;30.37;99858.34;4917101;29;20031;-69
2022/01/19 09:59:16;;;;;;;6.38;2.72;;;;;;;17.08;31.62;99852.31;4916517;29;20432;-69
2022/01/19 10:01:48;;;;;;;4.57;2.83;;;;;;;15.03;33.95;99863.94;4916899;29;20059;-69
2022/01/19 10:04:23;;;;;;;13.93;3.38;;;;;;;16.41;32.60;99848.78;4917002;29;20477;-68
2022/01/19 10:06:48;;;;;;;8.35;3.50;;;;;;;18.07;30.20;99835.44;4916956;29;20024;-69
2022/01/19 10:09:23;;;;;;;1.80;1.70;;;;;;;18.34;29.77;99830.22;4917049;29;20123;-68
2022/01/19 10:17:10;;;;;;;3.97;2.75;;;;;;;18.59;28.56;99818.00;4916966;29;20409;-68
2022/01/19 10:19:49;;;;;;;5.20;2.80;;;;;;;17.33;31.56;99820.19;4916814;29;20032;-69
2022/01/19 10:22:23;;;;;;;2.08;1.88;;;;;;;19.58;27.31;99805.72;4915849;29;20039;-68
2022/01/19 10:24:53;;;;;;;1.98;1.77;;;;;;;19.33;27.47;99804.91;4916618;29;20383;-68
2022/01/19 10:27:21;;;;;;;;;;;;;;;17.60;29.39;99793.19;4916957;29;20032;-68
2022/01/19 10:29:49;;;;;;;5.03;1.95;;;;;;;18.12;29.32;99780.22;4916598;29;19917;-69
2022/01/19 10:32:15;;;;;;;3.05;2.00;;;;;;;18.54;28.56;99777.94;4916543;29;20028;-68
2022/01/19 10:34:40;;;;;;;5.57;1.90;;;;;;;19.05;28.39;99779.66;4916537;29;20054;-69
2022/01/19 10:37:06;;;;;;;2.40;1.92;;;;;;;18.85;28.11;99776.88;4916332;29;20492;-69
2022/01/19 10:40:00;;;;;;;3.80;2.15;;;;;;;18.35;29.30;99771.59;4916619;29;20107;-69
2022/01/19 10:42:27;;;;;;;3.67;1.92;;;;;;;18.20;29.73;99768.56;4916250;29;20177;-69
2022/01/19 10:44:55;;;;;;;2.45;1.60;;;;;;;17.91;29.75;99760.81;4916446;29;20028;-69
2022/01/19 10:47:43;;;;;;;3.72;2.13;;;;;;;18.80;28.15;99752.56;4916167;29;20115;-69
2022/01/19 10:50:12;;;;;;;2.35;2.05;;;;;;;17.73;29.51;99746.50;4916360;29;20024;-69
2022/01/19 10:52:43;;;;;;;2.28;1.80;;;;;;;16.62;31.95;99750.56;4916452;29;20060;-69
2022/01/19 10:55:32;;;;;;;6.32;1.70;;;;;;;18.74;28.24;99749.22;4916233;29;20405;-69
2022/01/19 10:58:00;;;;;;;1.52;1.42;;;;;;;18.91;28.18;99755.66;4916203;29;20074;-69
2022/01/19 11:00:34;;;;;;;8.13;4.50;;;;;;;17.79;30.09;99735.81;4915975;29;20470;-69
2022/01/19 11:03:18;;;;;;;3.15;2.53;;;;;;;16.80;32.01;99742.25;4915929;29;20036;-69
2022/01/19 11:05:49;;;;;;;7.65;2.22;;;;;;;18.45;28.92;99731.00;4915750;29;20486;-69
2022/01/19 11:08:18;;;;;;;3.63;1.58;;;;;;;15.69;32.73;99738.09;4916173;29;20402;-69
2022/01/19 11:10:48;;;;;;;3.65;2.05;;;;;;;16.72;32.23;99730.28;4915958;29;20047;-69
2022/01/19 11:13:17;;;;;;;5.60;1.90;;;;;;;17.05;30.08;99726.69;4916285;29;20409;-69
2022/01/19 11:15:43;;;;;;;2.03;1.83;;;;;;;16.30;32.15;99726.13;4915811;29;20028;-69
2022/01/19 11:18:08;;;;;;;2.00;1.58;;;;;;;16.03;33.45;99727.69;4916044;29;20036;-69
2022/01/19 11:20:42;;;;;;;2.42;1.52;;;;;;;16.82;31.15;99716.03;4915110;29;20478;-68
2022/01/19 11:23:26;;;;;;;2.33;2.00;;;;;;;17.02;30.98;99699.75;4923035;29;20035;-69
2022/01/19 11:25:58;;;;;;;1.58;1.45;;;;;;;16.05;32.83;99705.00;4915640;29;20084;-68
2022/01/19 11:30:51;;;;;;;6.95;2.20;;;;;;;16.82;32.68;99692.47;4966685;23;20115;-71
2022/01/19 11:33:26;;;;;;;9.63;3.38;;;;;;;15.23;33.46;99697.34;4915580;29;20031;-72
2022/01/19 11:35:55;;;;;;;3.20;1.70;;;;;;;15.82;34.03;99682.03;4897179;29;20438;-71
2022/01/19 11:38:40;;;;;;;1.63;1.40;;;;;;;16.61;31.52;99679.06;4902200;29;20042;-71
2022/01/19 11:41:09;;;;;;;2.55;2.30;;;;;;;14.00;37.39;99682.34;4889372;29;20043;-71
2022/01/19 11:43:37;;;;;;;5.78;2.67;;;;;;;13.24;37.18;99684.38;4896068;29;20024;-71
2022/01/19 11:46:04;;;;;;;2.20;1.65;;;;;;;15.39;34.91;99677.81;4893442;29;20029;-71
2022/01/19 11:48:35;;;;;;;8.18;2.38;;;;;;;16.10;33.72;99666.50;4892301;29;20068;-71
2022/01/19 11:51:23;;;;;;;3.10;1.90;;;;;;;16.92;32.25;99662.50;4896818;29;20434;-71
2022/01/19 11:54:28;;;;;;;2.20;1.97;;;;;;;16.06;32.12;99670.09;4896664;29;20041;-71
2022/01/19 11:57:00;;;;;;;2.83;2.17;;;;;;;16.23;31.75;99667.03;4896705;29;20021;-71
2022/01/19 11:59:45;;;;;;;2.40;1.35;;;;;;;15.62;34.09;99658.97;4896751;29;20060;-71
2022/01/19 12:02:33;;;;;;;1.33;1.25;;;;;;;16.85;32.45;99653.13;4896754;29;20371;-71
2022/01/19 12:04:58;;;;;;;3.83;2.08;;;;;;;17.39;31.07;99647.09;4886584;29;20044;-71
2022/01/19 12:07:35;;;;;;;3.00;1.80;;;;;;;16.05;33.17;99647.47;4877912;29;20037;-71
2022/01/19 12:10:07;;;;;;;3.33;2.13;;;;;;;15.26;34.57;99641.56;4877802;29;20268;-72
2022/01/19 12:12:39;;;;;;;3.03;1.92;;;;;;;15.97;33.82;99643.34;4878035;29;20029;-71
2022/01/19 12:15:08;;;;;;;2.63;2.15;;;;;;;16.12;33.71;99637.72;4877899;29;20025;-71
2022/01/19 12:17:56;;;;;;;5.28;2.92;;;;;;;15.14;35.16;99640.97;4878008;29;20035;-71
2022/01/19 12:20:45;;;;;;;4.05;2.20;;;;;;;11.52;40.85;99656.75;4891986;29;20055;-71
2022/01/19 12:23:28;;;;;;;5.57;2.63;;;;;;;10.77;45.14;99665.00;4877842;29;20029;-71
2022/01/19 12:25:55;;;;;;;5.93;3.05;;;;;;;9.67;47.78;99665.19;4877481;29;20025;-71
2022/01/19 12:28:47;;;;;;;5.93;2.70;;;;;;;8.91;49.57;99672.00;4877865;29;20037;-71
2022/01/19 12:31:24;;;;;;;3.67;2.35;;;;;;;11.05;45.78;99658.78;4886039;29;20032;-71
2022/01/19 12:34:08;;;;;;;3.40;2.03;;;;;;;9.07;49.16;99665.13;4895342;29;20458;-71
2022/01/19 12:36:44;;;;;;;2.55;2.08;;;;;;;7.74;53.91;99669.63;4877618;29;20021;-71
2022/01/19 12:39:24;;;;;;;7.47;2.53;;;;;;;7.53;55.42;99666.84;4877739;29;20040;-71
2022/01/19 12:42:04;;;;;;;2.33;2.13;;;;;;;6.72;57.04;99669.47;4877687;29;20040;-70
2022/01/19 12:44:35;;;;;;;9.00;2.38;;;;;;;5.99;60.37;99660.75;4882777;29;20116;-70
2022/01/19 12:47:04;;;;;;;7.43;2.55;;;;;;;5.46;61.44;99665.88;4897457;29;20033;-70
2022/01/19 12:49:31;;;;;;;2.67;2.47;;;;;;;5.15;62.82;99665.38;4881091;29;20047;-70
2022/01/19 12:51:57;;;;;;;2.40;2.20;;;;;;;5.23;62.88;99657.81;4880949;29;20027;-70
2022/01/19 12:54:28;;;;;;;2.08;1.95;;;;;;;5.25;63.57;99658.69;4880966;29;20104;-70
2022/01/19 12:57:02;;;;;;;2.45;2.25;;;;;;;5.88;61.82;99656.28;4880606;29;20156;-70
2022/01/19 12:59:28;;;;;;;7.53;1.33;;;;;;;6.13;59.95;99652.38;4880980;29;20427;-71
2022/01/19 13:01:54;;;;;;;1.85;1.70;;;;;;;6.22;59.01;99651.66;4882829;29;20040;-70
2022/01/19 13:04:28;;;;;;;3.42;3.13;;;;;;;6.55;58.33;99650.38;4894668;29;20025;-70
2022/01/19 13:06:55;;;;;;;3.03;2.70;;;;;;;7.24;56.26;99639.09;4880542;29;20052;-71
2022/01/19 13:09:31;;;;;;;2.15;1.95;;;;;;;7.35;55.59;99629.75;4880522;29;20085;-70
2022/01/19 13:11:59;;;;;;;1.40;1.30;;;;;;;7.73;55.00;99621.44;4880779;29;20032;-70
2022/01/19 13:14:27;;;;;;;2.20;1.15;;;;;;;7.44;55.11;99619.50;4896506;29;20029;-70
2022/01/19 13:16:53;;;;;;;2.72;2.53;;;;;;;6.81;57.71;99623.19;4896402;29;20061;-70
2022/01/19 13:19:21;;;;;;;2.55;2.35;;;;;;;6.32;58.48;99622.63;4880510;29;20111;-70
2022/01/19 13:21:57;;;;;;;6.82;3.92;;;;;;;6.11;60.75;99617.22;4880224;29;20036;-70
2022/01/19 13:24:26;;;;;;;1.85;1.50;;;;;;;5.76;61.06;99614.97;4880647;29;20039;-70
2022/01/19 13:26:54;;;;;;;1.77;1.70;;;;;;;5.58;61.87;99615.56;4880369;29;20025;-70
2022/01/19 13:29:39;;;;;;;1.73;1.63;;;;;;;5.45;62.16;99612.75;4880231;29;20332;-70
2022/01/19 13:32:15;;;;;;;1.67;1.58;;;;;;;5.43;63.16;99609.31;4883673;29;20036;-70
2022/01/19 13:34:54;;;;;;;3.00;2.83;;;;;;;5.69;64.07;99605.44;4891453;29;20055;-70
2022/01/19 13:37:23;;;;;;;7.57;1.83;;;;;;;5.71;62.63;99601.19;4879943;29;20029;-70
2022/01/19 13:40:10;;;;;;;1.70;1.60;;;;;;;5.67;62.91;99597.72;4880086;29;20341;-70
2022/01/19 13:42:42;;;;;;;3.70;2.38;;;;;;;5.60;63.79;99600.16;4879985;29;20025;-70
2022/01/19 13:45:37;;;;;;;1.92;1.80;;;;;;;5.57;65.20;99592.41;4887047;29;20020;-70
2022/01/19 13:50:47;;;;;;;2.25;1.30;;;;;;;5.82;63.48;99588.47;4879961;29;20036;-70
2022/01/19 13:53:15;;;;;;;2.28;1.92;;;;;;;5.88;63.21;99583.41;4879251;29;20491;-70
2022/01/19 13:55:41;;;;;;;2.72;1.70;;;;;;;5.79;64.21;99580.72;4888457;29;20103;-70
2022/01/19 13:58:14;;;;;;;3.72;1.58;;;;;;;5.80;63.55;99583.31;4879809;29;20183;-71
2022/01/19 14:01:02;;;;;;;1.58;1.50;;;;;;;5.68;64.27;99586.56;4884390;29;20060;-70
2022/01/19 14:03:49;;;;;;;1.70;1.50;;;;;;;5.63;64.08;99592.50;4896884;29;20021;-70
2022/01/19 14:06:29;;;;;;;2.38;2.17;;;;;;;5.64;63.88;99586.50;4885035;29;20028;-70
2022/01/19 14:09:16;;;;;;;1.20;1.17;;;;;;;5.64;64.52;99586.50;4881191;29;20137;-70
2022/01/19 14:11:59;;;;;;;5.93;1.95;;;;;;;5.47;64.42;99590.53;4878227;29;20112;-70
2022/01/19 14:14:32;;;;;;;1.70;1.42;;;;;;;5.55;64.29;99589.78;4879672;29;20116;-71
2022/01/19 14:16:58;;;;;;;2.42;1.60;;;;;;;5.45;64.44;99587.06;4879467;29;20033;-70
2022/01/19 14:19:25;;;;;;;1.88;1.77;;;;;;;5.53;65.42;99580.34;4879298;29;20033;-71
2022/01/19 14:22:10;;;;;;;2.50;2.33;;;;;;;5.68;65.41;99572.84;4890856;29;20482;-70
2022/01/19 14:24:57;;;;;;;1.92;1.80;;;;;;;5.96;63.78;99581.00;4893865;29;20036;-70
2022/01/19 14:27:22;;;;;;;11.48;2.22;;;;;;;6.28;62.15;99573.66;4898022;29;20037;-70
2022/01/19 14:30:03;;;;;;;2.45;2.33;;;;;;;6.22;62.25;99569.31;4896411;29;20037;-71
2022/01/19 14:32:45;;;;;;;6.07;2.00;;;;;;;6.07;62.53;99566.56;4897825;29;20542;-70
2022/01/19 14:35:36;;;;;;;1.75;1.65;;;;;;;6.07;63.47;99559.69;4890281;29;20043;-70
2022/01/19 14:38:10;;;;;;;3.67;1.60;;;;;;;5.80;62.89;99554.16;4897701;29;20411;-70
2022/01/19 14:40:59;;;;;;;1.88;1.77;;;;;;;5.64;63.90;99558.22;4896845;29;20421;-70
2022/01/19 14:43:54;;;;;;;3.15;1.58;;;;;;;5.52;64.96;99543.50;4891791;29;20223;-70
2022/01/19 14:46:35;;;;;;;2.33;2.03;;;;;;;5.52;64.04;99534.94;4897538;29;20044;-70
2022/01/19 14:49:01;;;;;;;2.22;2.13;;;;;;;5.50;64.85;99528.88;4897613;29;20431;-70
2022/01/19 14:51:29;;;;;;;1.83;1.73;;;;;;;5.47;64.05;99521.16;4897324;29;20076;-70
2022/01/19 14:54:08;;;;;;;5.82;2.60;;;;;;;5.36;64.59;99511.56;4897675;29;20029;-71
2022/01/19 14:56:35;;;;;;;4.72;2.17;;;;;;;5.29;64.72;99514.88;4897302;29;20545;-70
2022/01/19 14:59:04;;;;;;;1.58;1.48;;;;;;;5.35;65.18;99509.84;4897401;29;20067;-70
2022/01/19 15:01:30;;;;;;;3.03;2.27;;;;;;;5.39;66.04;99506.47;4897338;29;20179;-71
2022/01/19 15:03:56;;;;;;;1.95;1.85;;;;;;;5.30;66.12;99511.47;4895463;29;20055;-70
2022/01/19 15:06:22;;;;;;;4.15;1.70;;;;;;;5.22;66.20;99513.09;4877745;29;20029;-70
2022/01/19 15:08:47;;;;;;;2.13;1.92;;;;;;;5.30;65.12;99511.47;4878614;29;20092;-70
2022/01/19 15:11:15;;;;;;;1.60;1.50;;;;;;;5.26;65.61;99507.13;4888614;29;20028;-71
2022/01/19 15:13:41;;;;;;;2.03;1.92;;;;;;;5.23;66.46;99499.38;4896433;29;20433;-71
2022/01/19 15:16:06;;;;;;;1.88;1.77;;;;;;;5.24;66.16;99495.13;4886201;29;20065;-70
2022/01/19 15:18:31;;;;;;;1.67;1.58;;;;;;;5.25;64.57;99500.25;4878345;29;20025;-70
2022/01/19 15:20:57;;;;;;;1.20;1.20;;;;;;;5.25;63.59;99507.97;4878266;29;20124;-70
2022/01/19 15:23:22;;;;;;;4.72;2.22;;;;;;;5.28;63.87;99508.03;4878753;29;20401;-70
2022/01/19 15:25:48;;;;;;;1.45;1.45;;;;;;;5.26;63.97;99508.84;4878400;29;20024;-70
2022/01/19 15:28:13;;;;;;;1.10;1.00;;;;;;;5.21;64.21;99503.63;4878407;29;20036;-70
2022/01/19 15:30:42;;;;;;;3.92;1.95;;;;;;;5.15;63.97;99500.97;4878137;29;20514;-70
2022/01/19 15:33:08;;;;;;;1.60;1.50;;;;;;;5.15;64.43;99508.69;4889675;29;20021;-70
2022/01/19 15:35:37;;;;;;;1.33;1.33;;;;;;;5.05;64.18;99514.50;4885666;29;20043;-70
2022/01/19 15:38:03;;;;;;;1.75;1.65;;;;;;;5.05;64.51;99514.50;4888604;29;20113;-70
2022/01/19 15:40:28;;;;;;;1.20;0.95;;;;;;;4.94;64.04;99510.91;4896790;29;20107;-70
2022/01/19 15:42:55;;;;;;;2.90;1.95;;;;;;;4.87;64.13;99513.34;4896641;29;20033;-70
2022/01/19 15:45:20;;;;;;;2.65;1.40;;;;;;;4.82;64.13;99512.41;4896814;29;20043;-70
2022/01/19 15:47:46;;;;;;;1.38;1.10;;;;;;;4.90;65.35;99521.13;4896429;29;20032;-70
2022/01/19 15:50:12;;;;;;;1.73;1.63;;;;;;;4.75;64.72;99518.31;4892124;29;20077;-70
2022/01/19 15:52:38;;;;;;;1.23;1.08;;;;;;;4.85;65.41;99512.47;4878006;29;20036;-70
2022/01/19 15:55:06;;;;;;;1.95;1.42;;;;;;;4.78;65.62;99509.78;4878129;29;20081;-70
2022/01/19 15:57:31;;;;;;;2.20;1.27;;;;;;;4.68;65.52;99503.63;4879438;29;20111;-70
2022/01/19 15:59:58;;;;;;;11.65;2.28;;;;;;;4.75;65.66;99505.47;4886841;29;20115;-70
2022/01/19 16:02:24;;;;;;;0.88;0.88;;;;;;;4.69;65.99;99504.47;4883895;29;20703;-70
2022/01/19 16:04:49;;;;;;;2.50;2.30;;;;;;;4.71;65.70;99498.56;4887977;29;20031;-70
2022/01/19 16:07:15;;;;;;;3.22;2.22;;;;;;;4.69;66.28;99507.03;4877728;29;20398;-69
2022/01/19 16:09:40;;;;;;;2.67;1.23;;;;;;;4.69;66.24;99507.94;4879259;29;20037;-70